GCLP METAR and TAF | Updated Today

GCLP METAR

Gran Canaria Airport

Observation time: 29 min. ago

GCLP 292030Z 34013KT 9999 SCT022 BKN035 23/19 Q1018 NOSIG

Need help? Read our tutorial on how to read METARs or read the parsed version below.

Gran Canaria Airport (GCLP) METAR

  • Weather conditions on Thu, 29 Sep 2022 20:30:00 +0000 (29 min. ago):
  • Present conditions: Dry
  • Clouds: Scattered at 671 meters; broken sky at 1067 meters
  • Visibility: Greater than 10 km
  • Wind: 340 degrees at 13 knots
  • Temperature: 23 celsius
  • Dew point: 19 celsius
  • Pressure: 1018 millibars
  • Remarks: None


Useful to know...

GCLP TAF

Gran Canaria Airport

TAF GCLP 291400Z 2915/3015 02020KT 9999 SCT035 TX25/3014Z TN20/3006Z PROB30 TEMPO 3006/3015 DZRA
Observation time: 6:59 hr. ago
Need help? Read our tutorial on how to read TAFs or read the parsed version below.

Parsed version of TAF for Gran Canaria Airport (GCLP)

  • From 29 September at 15:00 UTC, to day 30 of the month at 15:00 UTC
  • Clouds: Scattered at 1067 meters
  • Visibility: Greater than 10 km
  • Wind: 20 degrees at 20
  • Expected to arise temporarily, from 30 September at 06:00 UTC, to day 30 of the month at 15:00 UTC
    Probability of 30%

Airports near GCLP

No airports found within 100nm radius.